Time;durP1;ratioP1;P1;durP2;ratioP2;P2;SDS_P1;SDS_P2;PMS_P1;PMS_P2;Temp;Humidity;BMP_temperature;BMP_pressure;BME280_temperature;BME280_humidity;BME280_pressure;Samples;Min_cycle;Max_cycle;Signal;HPM_P1;HPM_P2
2021/09/15 00:01:01;;;;;;;53.10;49.67;;;18.80;99.90;;;;;;6185601;23;20397;-87
2021/09/15 00:03:34;;;;;;;56.93;53.17;;;18.80;99.90;;;;;;6185368;23;20492;-89
2021/09/15 00:06:03;;;;;;;54.50;50.57;;;18.80;99.90;;;;;;6195404;23;20462;-89
2021/09/15 00:08:34;;;;;;;53.53;50.07;;;18.80;99.90;;;;;;6195170;23;20445;-87
2021/09/15 00:11:03;;;;;;;62.30;58.10;;;18.80;99.90;;;;;;6193842;23;20408;-88
2021/09/15 00:13:32;;;;;;;63.33;59.23;;;18.80;99.90;;;;;;6195388;23;20415;-89
2021/09/15 00:16:01;;;;;;;61.67;57.77;;;18.80;99.90;;;;;;6194987;23;20995;-88
2021/09/15 00:18:32;;;;;;;61.43;57.50;;;18.80;99.90;;;;;;6185555;23;20496;-89
2021/09/15 00:21:02;;;;;;;57.50;53.80;;;18.80;99.90;;;;;;6195565;23;20405;-88
2021/09/15 00:23:33;;;;;;;56.63;53.17;;;18.90;99.90;;;;;;6185509;23;20776;-87
2021/09/15 00:26:00;;;;;;;52.50;49.10;;;19.00;99.90;;;;;;6194033;23;20418;-87
2021/09/15 00:28:27;;;;;;;53.90;50.47;;;18.80;99.90;;;;;;6194977;23;20434;-87
2021/09/15 00:30:56;;;;;;;53.90;50.03;;;19.00;99.90;;;;;;6195140;23;20428;-88
2021/09/15 00:33:29;;;;;;;48.23;44.87;;;19.00;99.90;;;;;;6195079;23;20445;-89
2021/09/15 00:35:58;;;;;;;48.33;45.23;;;19.00;99.90;;;;;;6185424;23;20404;-88
2021/09/15 00:38:26;;;;;;;49.07;45.40;;;19.00;99.90;;;;;;6185468;23;20460;-88
2021/09/15 00:40:56;;;;;;;48.97;45.57;;;19.10;99.90;;;;;;6193610;23;20414;-89
2021/09/15 00:43:27;;;;;;;46.50;43.50;;;19.10;99.90;;;;;;6185283;23;20695;-88
2021/09/15 00:45:56;;;;;;;46.27;43.33;;;19.10;99.90;;;;;;6195014;23;20402;-88
2021/09/15 00:48:23;;;;;;;49.97;46.57;;;19.10;99.90;;;;;;6184941;23;20439;-87
2021/09/15 00:50:53;;;;;;;43.77;40.43;;;19.20;99.90;;;;;;6184990;23;20441;-89
2021/09/15 00:53:20;;;;;;;44.70;41.40;;;19.20;99.90;;;;;;6195273;23;20413;-89
2021/09/15 00:55:48;;;;;;;47.67;44.37;;;19.10;99.90;;;;;;6196040;23;20941;-88
2021/09/15 00:58:24;;;;;;;47.80;44.23;;;19.20;99.90;;;;;;6187261;23;20411;-89
2021/09/15 01:00:52;;;;;;;50.87;47.50;;;19.10;99.90;;;;;;6196910;23;20434;-87
2021/09/15 01:03:21;;;;;;;48.20;44.40;;;19.10;99.90;;;;;;6197067;23;20903;-87
2021/09/15 01:05:48;;;;;;;50.70;47.10;;;19.10;99.90;;;;;;6196612;23;20444;-89
2021/09/15 01:08:16;;;;;;;51.60;48.30;;;19.10;99.90;;;;;;6186491;23;20480;-88
2021/09/15 01:10:56;;;;;;;53.83;50.27;;;19.10;99.90;;;;;;6195603;23;20733;-88
2021/09/15 01:13:29;;;;;;;54.07;50.57;;;19.00;99.90;;;;;;6197041;23;20470;-88
2021/09/15 01:16:06;;;;;;;;;;;;;;;;;;;;;
2021/09/15 01:18:39;;;;;;;53.37;49.63;;;19.10;99.90;;;;;;6194051;23;20405;-88
2021/09/15 01:21:18;;;;;;;54.67;51.37;;;19.00;99.90;;;;;;6196760;23;20455;-87
2021/09/15 01:23:45;;;;;;;57.87;54.07;;;19.00;99.90;;;;;;6196456;23;20408;-88
2021/09/15 01:26:14;;;;;;;61.40;56.60;;;18.90;99.90;;;;;;6185457;23;20952;-88
2021/09/15 01:28:41;;;;;;;59.37;55.27;;;18.90;99.90;;;;;;6196732;23;20480;-88
2021/09/15 01:31:08;;;;;;;60.67;56.97;;;18.90;99.90;;;;;;6186794;23;20410;-88
2021/09/15 01:33:41;;;;;;;62.83;58.93;;;18.80;99.90;;;;;;6196787;23;20491;-89
2021/09/15 01:36:09;;;;;;;66.00;61.60;;;18.80;99.90;;;;;;6196456;23;20711;-88
2021/09/15 01:38:37;;;;;;;69.67;64.57;;;18.70;99.90;;;;;;6186921;23;20770;-89
2021/09/15 01:41:03;;;;;;;73.07;68.57;;;18.70;99.90;;;;;;6195285;23;20417;-88
2021/09/15 01:43:30;;;;;;;72.20;67.60;;;18.70;99.90;;;;;;6196335;23;21159;-89
2021/09/15 01:45:57;;;;;;;76.90;72.30;;;18.70;99.90;;;;;;6196799;23;20470;-89
2021/09/15 01:48:24;;;;;;;78.20;73.53;;;18.60;99.90;;;;;;6196693;23;20447;-88
2021/09/15 01:50:53;;;;;;;77.97;73.13;;;18.60;99.90;;;;;;6186794;23;20403;-89
2021/09/15 01:53:25;;;;;;;71.40;67.03;;;18.60;99.90;;;;;;6186806;23;20732;-88
2021/09/15 01:55:52;;;;;;;82.53;77.63;;;18.50;99.90;;;;;;6185099;23;20412;-89
2021/09/15 01:58:19;;;;;;;88.23;82.97;;;18.50;99.90;;;;;;6186451;23;20484;-86
2021/09/15 02:00:56;;;;;;;;;;;;;;;;;;;;;
2021/09/15 02:03:23;;;;;;;98.93;92.97;;;18.40;99.90;;;;;;6193716;23;20894;-88
2021/09/15 02:05:50;;;;;;;106.10;100.27;;;18.40;99.90;;;;;;6196315;23;20475;-88
2021/09/15 02:08:17;;;;;;;108.90;103.00;;;18.40;99.90;;;;;;6196128;23;20443;-86
2021/09/15 02:10:48;;;;;;;110.27;104.07;;;18.40;99.90;;;;;;6185858;23;20411;-88
2021/09/15 02:13:15;;;;;;;110.83;104.80;;;18.30;99.90;;;;;;6186834;23;20403;-88
2021/09/15 02:15:41;;;;;;;113.87;107.60;;;18.30;99.90;;;;;;6186191;23;20439;-84
2021/09/15 02:18:08;;;;;;;125.47;118.27;;;18.30;99.90;;;;;;6186268;23;20410;-88
2021/09/15 02:20:36;;;;;;;122.20;115.67;;;18.30;99.90;;;;;;6186146;23;20945;-89
2021/09/15 02:23:09;;;;;;;118.43;112.17;;;18.30;99.90;;;;;;6196555;23;20447;-89
2021/09/15 02:25:36;;;;;;;122.77;116.07;;;18.40;99.90;;;;;;6194690;23;20403;-88
2021/09/15 02:28:08;;;;;;;130.70;123.90;;;18.30;99.90;;;;;;6186025;23;20438;-86
2021/09/15 02:30:35;;;;;;;135.60;128.17;;;18.20;99.90;;;;;;6196069;23;20894;-88
2021/09/15 02:33:02;;;;;;;139.97;132.27;;;18.20;99.90;;;;;;6186357;23;20773;-88
2021/09/15 02:35:29;;;;;;;144.80;136.80;;;18.40;99.90;;;;;;6186020;23;20408;-87
2021/09/15 02:37:57;;;;;;;146.87;138.77;;;18.30;99.90;;;;;;6186164;23;20403;-88
2021/09/15 02:40:26;;;;;;;150.03;141.93;;;18.30;99.90;;;;;;6194843;23;20412;-87
2021/09/15 02:42:53;;;;;;;151.47;142.97;;;18.30;99.90;;;;;;6196168;23;20441;-88
2021/09/15 02:45:22;;;;;;;157.23;148.43;;;18.20;99.90;;;;;;6186284;23;20407;-87
2021/09/15 02:47:49;;;;;;;162.40;153.67;;;18.20;99.90;;;;;;6186230;23;20407;-89
2021/09/15 02:50:21;;;;;;;169.20;159.90;;;18.30;99.90;;;;;;6195907;23;20447;-86
2021/09/15 02:52:47;;;;;;;180.43;171.00;;;18.20;99.90;;;;;;6196253;23;20403;-86
2021/09/15 02:55:22;;;;;;;182.07;172.27;;;18.10;99.90;;;;;;6184460;23;20399;-87
2021/09/15 02:57:52;;;;;;;195.83;185.13;;;18.10;99.90;;;;;;6185851;23;20954;-87
2021/09/15 03:00:29;;;;;;;206.63;195.43;;;18.10;99.90;;;;;;6186095;23;20403;-87
2021/09/15 03:03:08;;;;;;;197.97;186.73;;;18.10;99.90;;;;;;6185766;23;20404;-88
2021/09/15 03:05:36;;;;;;;196.03;185.23;;;18.20;99.90;;;;;;6195691;23;20437;-89
2021/09/15 03:08:05;;;;;;;201.43;190.37;;;18.10;99.90;;;;;;6185964;23;20495;-88
2021/09/15 03:10:38;;;;;;;208.13;196.83;;;18.20;99.90;;;;;;6184293;23;20407;-87
2021/09/15 03:13:08;;;;;;;210.13;198.67;;;18.10;99.90;;;;;;6186047;23;20476;-84
2021/09/15 03:15:38;;;;;;;212.50;200.60;;;18.10;99.90;;;;;;6185616;23;20404;-86
2021/09/15 03:18:06;;;;;;;210.70;199.20;;;18.20;99.90;;;;;;6185378;23;20882;-86
2021/09/15 03:20:33;;;;;;;220.87;208.63;;;18.10;99.90;;;;;;6186249;23;20400;-85
2021/09/15 03:23:00;;;;;;;227.43;214.00;;;18.10;99.90;;;;;;6186221;23;20434;-87
2021/09/15 03:25:32;;;;;;;216.73;204.67;;;18.30;99.90;;;;;;6184731;23;20713;-80
2021/09/15 03:27:58;;;;;;;222.47;210.27;;;18.10;99.90;;;;;;6185639;23;20731;-79
2021/09/15 03:30:25;;;;;;;219.00;207.20;;;18.10;99.90;;;;;;6185759;23;20436;-79
2021/09/15 03:32:54;;;;;;;211.27;199.40;;;18.20;99.90;;;;;;6185479;23;20499;-79
2021/09/15 03:35:21;;;;;;;209.07;197.27;;;18.30;99.90;;;;;;6185902;23;20492;-78
2021/09/15 03:37:47;;;;;;;206.53;195.10;;;18.20;99.90;;;;;;6185855;23;20499;-80
2021/09/15 03:40:14;;;;;;;197.70;186.20;;;18.20;99.90;;;;;;6184183;23;20436;-81
2021/09/15 03:42:41;;;;;;;195.43;184.43;;;18.20;99.90;;;;;;6185555;23;20436;-85
2021/09/15 03:45:09;;;;;;;199.80;188.30;;;18.30;99.90;;;;;;6186165;23;20490;-85
2021/09/15 03:47:36;;;;;;;206.80;195.27;;;18.20;99.90;;;;;;6195668;23;20447;-85
2021/09/15 03:50:05;;;;;;;205.47;193.97;;;18.30;99.90;;;;;;6195693;23;20431;-86
2021/09/15 03:52:32;;;;;;;196.17;185.07;;;18.40;99.90;;;;;;6185570;23;20489;-87
2021/09/15 03:54:59;;;;;;;204.10;192.10;;;18.50;99.90;;;;;;6183885;23;20496;-85
2021/09/15 03:57:27;;;;;;;194.67;183.97;;;18.50;99.90;;;;;;6185629;23;20404;-83
2021/09/15 03:59:54;;;;;;;201.43;190.10;;;18.50;99.90;;;;;;6185658;23;20408;-85
2021/09/15 04:02:22;;;;;;;193.70;183.17;;;18.50;99.90;;;;;;6185370;23;20475;-86
2021/09/15 04:04:49;;;;;;;188.93;177.80;;;18.60;99.90;;;;;;6185711;23;20403;-85
2021/09/15 04:07:17;;;;;;;183.00;172.70;;;18.60;99.90;;;;;;6155537;23;20492;-85
2021/09/15 04:09:44;;;;;;;178.57;168.37;;;18.50;99.90;;;;;;6153737;23;20479;-84
2021/09/15 04:12:11;;;;;;;176.10;166.10;;;18.50;99.90;;;;;;6155840;23;20409;-83
2021/09/15 04:14:38;;;;;;;169.83;159.80;;;18.60;99.90;;;;;;6155254;23;20497;-85
2021/09/15 04:17:05;;;;;;;167.77;158.10;;;18.60;99.90;;;;;;6165419;23;20405;-81
2021/09/15 04:19:32;;;;;;;166.00;156.67;;;18.60;99.90;;;;;;6155815;23;20401;-84
2021/09/15 04:21:59;;;;;;;165.70;156.20;;;18.60;99.90;;;;;;6155859;23;20401;-85
2021/09/15 04:33:34;;;;;;;157.67;148.43;;;18.70;99.90;;;;;;6167395;23;20874;-84
2021/09/15 04:36:03;;;;;;;159.27;149.27;;;18.60;99.90;;;;;;6167082;23;20446;-81
2021/09/15 04:41:16;;;;;;;159.73;150.63;;;18.50;99.90;;;;;;6154613;23;20423;-84
2021/09/15 04:43:43;;;;;;;157.67;148.67;;;18.50;99.90;;;;;;6167628;23;20408;-81
2021/09/15 04:46:10;;;;;;;160.43;151.00;;;18.50;99.90;;;;;;6157507;23;20490;-78
2021/09/15 04:48:38;;;;;;;163.93;154.00;;;18.50;99.90;;;;;;6157264;23;20484;-79
2021/09/15 04:51:05;;;;;;;171.67;161.67;;;18.50;99.90;;;;;;6157120;23;20908;-79
2021/09/15 04:53:33;;;;;;;166.63;157.27;;;18.40;99.90;;;;;;6157419;23;20487;-80
2021/09/15 04:56:00;;;;;;;169.20;159.57;;;18.50;99.90;;;;;;6165636;23;20446;-88
2021/09/15 04:58:28;;;;;;;173.47;162.97;;;18.40;99.90;;;;;;6167369;23;20782;-80
2021/09/15 05:00:55;;;;;;;178.00;167.77;;;18.40;99.90;;;;;;6157325;23;20402;-83
2021/09/15 05:03:23;;;;;;;180.63;169.97;;;18.40;99.90;;;;;;6167160;23;20809;-82
2021/09/15 05:05:50;;;;;;;185.30;173.97;;;18.40;99.90;;;;;;6169165;23;20511;-82
2021/09/15 05:08:17;;;;;;;186.57;175.67;;;18.30;99.90;;;;;;6186554;23;20482;-87
2021/09/15 05:10:44;;;;;;;190.27;178.97;;;18.40;99.90;;;;;;6195444;23;20431;-84
2021/09/15 05:13:11;;;;;;;191.67;180.43;;;18.40;99.90;;;;;;6196503;23;20564;-83
2021/09/15 05:15:39;;;;;;;188.40;177.20;;;18.40;99.90;;;;;;6187094;23;20490;-82
2021/09/15 05:18:06;;;;;;;194.80;182.80;;;18.40;99.90;;;;;;6187013;23;20435;-85
2021/09/15 05:20:33;;;;;;;193.40;181.27;;;18.40;99.90;;;;;;6186532;23;20499;-85
2021/09/15 05:23:00;;;;;;;196.43;184.50;;;18.50;99.90;;;;;;6186953;23;20453;-87
2021/09/15 05:25:27;;;;;;;195.63;184.07;;;18.50;99.90;;;;;;6185610;23;20403;-86
2021/09/15 05:27:55;;;;;;;197.93;186.07;;;18.50;99.90;;;;;;6186687;23;20938;-86
2021/09/15 05:30:22;;;;;;;202.27;190.57;;;18.50;99.90;;;;;;6196939;23;20750;-85
2021/09/15 05:32:50;;;;;;;208.83;196.77;;;18.50;99.90;;;;;;6186580;23;20942;-85
2021/09/15 05:35:17;;;;;;;203.47;191.53;;;18.50;99.90;;;;;;6196846;23;20406;-84
2021/09/15 05:37:44;;;;;;;201.87;189.73;;;18.50;99.90;;;;;;6186534;23;20409;-82
2021/09/15 05:40:12;;;;;;;180.37;170.30;;;18.50;99.90;;;;;;6185139;23;20411;-81
2021/09/15 05:42:39;;;;;;;165.60;155.97;;;18.60;99.90;;;;;;6186819;23;20468;-81
2021/09/15 05:45:07;;;;;;;163.07;154.27;;;18.70;99.90;;;;;;6186843;23;20412;-81
2021/09/15 05:47:34;;;;;;;155.03;146.73;;;18.70;99.90;;;;;;6196440;23;20402;-80
2021/09/15 05:53:15;;;;;;;133.60;126.60;;;18.80;99.90;;;;;;6046243;23;20506;-83
2021/09/15 05:55:42;;;;;;;134.23;126.97;;;18.90;99.90;;;;;;6185095;23;20408;-83
2021/09/15 05:58:09;;;;;;;135.73;128.60;;;18.90;99.90;;;;;;6186616;23;20501;-87
2021/09/15 06:00:36;;;;;;;136.93;130.07;;;18.90;99.90;;;;;;6186278;23;20434;-85
2021/09/15 06:03:03;;;;;;;135.80;128.50;;;18.90;99.90;;;;;;6186405;23;20398;-87
2021/09/15 06:05:30;;;;;;;138.93;131.57;;;18.80;99.90;;;;;;6186054;23;20925;-87
2021/09/15 06:07:57;;;;;;;142.63;134.53;;;19.00;99.90;;;;;;6186574;23;20404;-92
2021/09/15 06:10:25;;;;;;;140.83;132.37;;;18.80;99.90;;;;;;6194723;23;20444;-90
2021/09/15 06:12:52;;;;;;;137.33;128.97;;;19.00;99.90;;;;;;6196482;23;20496;-90
2021/09/15 06:15:19;;;;;;;128.23;120.77;;;18.90;99.90;;;;;;6196212;23;20406;-92
2021/09/15 06:17:46;;;;;;;123.63;116.90;;;19.00;99.90;;;;;;6186670;23;20454;-89
2021/09/15 06:20:13;;;;;;;114.90;108.70;;;19.00;99.90;;;;;;6186366;23;20411;-87
2021/09/15 06:22:40;;;;;;;103.47;98.40;;;19.00;99.90;;;;;;6186065;23;20881;-90
2021/09/15 06:25:08;;;;;;;109.93;104.23;;;18.90;99.90;;;;;;6185029;23;20490;-89
2021/09/15 06:27:38;;;;;;;111.23;105.97;;;19.00;99.90;;;;;;6195771;23;21001;-92
2021/09/15 06:30:06;;;;;;;117.53;111.33;;;19.10;99.90;;;;;;6196161;23;20442;-90
2021/09/15 06:32:33;;;;;;;113.47;107.47;;;19.10;99.90;;;;;;6186489;23;20408;-91
2021/09/15 06:35:00;;;;;;;121.70;115.30;;;19.10;99.90;;;;;;6186503;23;20857;-89
2021/09/15 06:37:28;;;;;;;118.67;112.67;;;19.10;99.90;;;;;;6185810;23;20884;-90
2021/09/15 06:39:54;;;;;;;112.50;106.53;;;19.00;99.90;;;;;;6184411;23;20500;-88
2021/09/15 06:42:21;;;;;;;113.90;108.00;;;19.10;99.90;;;;;;6196089;23;20468;-82
2021/09/15 06:44:50;;;;;;;107.20;101.30;;;19.10;99.90;;;;;;6185889;23;20408;-81
2021/09/15 06:47:17;;;;;;;112.37;106.50;;;19.30;99.90;;;;;;6186007;23;20402;-80
2021/09/15 06:49:44;;;;;;;118.90;112.77;;;19.30;99.90;;;;;;6186126;23;20462;-82
2021/09/15 06:52:15;;;;;;;124.87;117.87;;;19.30;99.90;;;;;;6185795;23;20404;-84
2021/09/15 06:54:45;;;;;;;119.47;113.37;;;19.40;99.90;;;;;;6184604;23;20402;-81
2021/09/15 06:57:11;;;;;;;113.03;107.13;;;19.50;99.90;;;;;;6186245;23;20402;-81
2021/09/15 06:59:38;;;;;;;103.73;98.30;;;19.50;99.90;;;;;;6186235;23;20402;-78
2021/09/15 07:02:07;;;;;;;92.13;87.23;;;19.40;99.90;;;;;;6181830;23;20401;-80
2021/09/15 07:04:33;;;;;;;86.40;81.17;;;19.50;99.90;;;;;;6183835;23;20398;-79
2021/09/15 07:07:00;;;;;;;88.60;83.83;;;19.50;99.90;;;;;;6183611;23;20444;-89
2021/09/15 07:09:27;;;;;;;88.07;83.80;;;19.60;99.90;;;;;;6183579;23;20449;-84
2021/09/15 07:11:54;;;;;;;81.57;77.67;;;19.60;99.90;;;;;;6183888;23;20404;-86
2021/09/15 07:14:21;;;;;;;82.10;78.10;;;19.60;99.90;;;;;;6183420;23;20958;-83
2021/09/15 07:16:48;;;;;;;74.97;71.27;;;19.60;99.90;;;;;;6183388;23;20499;-84
2021/09/15 07:19:16;;;;;;;71.60;67.63;;;19.70;99.90;;;;;;6184319;23;20444;-84
2021/09/15 07:21:45;;;;;;;66.23;62.73;;;19.80;99.90;;;;;;6184234;23;20477;-84
2021/09/15 07:24:52;;;;;;;;;;;;;;;;;;;;;
2021/09/15 08:32:35;;;;;;;17.33;15.93;;;20.90;99.90;;;;;;5936890;23;20753;-83
2021/09/15 08:35:05;;;;;;;17.70;16.20;;;20.90;99.90;;;;;;6159818;23;20423;-81
2021/09/15 08:37:35;;;;;;;23.20;14.53;;;21.00;99.30;;;;;;6185498;23;20188;-82
2021/09/15 08:43:49;;;;;;;;;;;;;;;;;;;;;
2021/09/15 08:46:24;;;;;;;12.47;11.27;;;21.20;98.90;;;;;;6190878;23;20421;-83
2021/09/15 08:48:52;;;;;;;10.70;9.60;;;21.40;97.70;;;;;;6194946;23;20496;-87
2021/09/15 09:58:53;;;;;;;16.13;14.63;;;21.10;95.30;;;;;;6127394;23;20433;-84
2021/09/15 10:01:21;;;;;;;17.30;15.90;;;20.80;98.00;;;;;;6137176;23;20399;-87
2021/09/15 10:04:11;;;;;;;;;;;;;;;;;;;;;
2021/09/15 10:06:43;;;;;;;24.87;23.07;;;20.50;99.90;;;;;;6137114;23;20168;-85
2021/09/15 10:09:15;;;;;;;25.60;24.00;;;20.50;99.90;;;;;;6137108;23;20466;-84
2021/09/15 10:11:44;;;;;;;36.00;33.60;;;20.30;99.90;;;;;;6135670;23;20474;-82
2021/09/15 10:14:17;;;;;;;52.80;50.27;;;20.30;99.90;;;;;;6127183;23;20465;-82
2021/09/15 10:16:46;;;;;;;75.40;71.63;;;20.10;99.90;;;;;;6137010;23;20406;-84
2021/09/15 10:30:40;;;;;;;130.27;123.37;;;19.70;99.90;;;;;;5804233;24;20807;-88
2021/09/15 10:33:47;;;;;;;149.50;141.60;;;19.70;99.90;;;;;;5857329;24;20527;-88
2021/09/15 10:40:40;;;;;;;167.53;158.73;;;19.80;99.90;;;;;;6055920;23;20787;-88
2021/09/15 10:47:32;;;;;;;176.73;167.40;;;20.10;99.90;;;;;;5964087;23;20411;-90
2021/09/15 10:53:55;;;;;;;;;;;;;;;;;;;;;
2021/09/15 10:56:41;;;;;;;148.17;140.30;;;20.20;99.90;;;;;;5977016;23;21064;-82
2021/09/15 11:06:43;;;;;;;;;;;;;;;;;;;;;
2021/09/15 11:09:16;;;;;;;146.37;137.57;;;19.60;99.90;;;;;;5994209;23;20426;-83
2021/09/15 11:11:52;;;;;;;161.67;151.27;;;19.50;99.90;;;;;;6094608;23;20473;-81
2021/09/15 11:14:19;;;;;;;165.30;155.30;;;19.60;99.90;;;;;;6095333;23;20464;-82
2021/09/15 11:16:46;;;;;;;177.97;167.07;;;19.70;99.90;;;;;;6095627;23;20705;-81
2021/09/15 11:22:36;;;;;;;155.20;144.73;;;20.00;99.90;;;;;;6016441;23;20484;-87
2021/09/15 11:25:15;;;;;;;;;;;;;;;;;;;;;
2021/09/15 11:35:31;;;;;;;146.37;136.93;;;20.20;99.90;;;;;;5987557;24;20414;-88
2021/09/15 11:38:14;;;;;;;137.47;128.20;;;20.30;99.90;;;;;;5977899;24;20415;-90
2021/09/15 11:40:56;;;;;;;139.53;130.90;;;20.50;99.90;;;;;;5977285;24;20453;-86
2021/09/15 11:43:23;;;;;;;110.57;103.53;;;20.80;99.90;;;;;;5988260;24;20540;-87
2021/09/15 11:45:50;;;;;;;115.70;108.50;;;20.80;99.90;;;;;;6062202;23;20475;-92
2021/09/15 11:48:27;;;;;;;115.85;108.50;;;21.00;99.90;;;;;;6096004;23;20722;-83
2021/09/15 11:51:14;;;;;;;84.93;79.77;;;21.20;99.90;;;;;;6096527;23;20191;-87
2021/09/15 11:53:56;;;;;;;78.50;73.37;;;21.20;99.90;;;;;;6095882;23;20421;-87
2021/09/15 12:23:50;;;;;;;21.87;19.00;;;23.60;94.20;;;;;;6192553;23;20456;-81
2021/09/15 13:03:39;;;;;;;20.93;14.93;;;25.40;66.00;;;;;;5164441;27;20562;-83
2021/09/15 13:06:06;;;;;;;15.53;12.73;;;26.70;63.50;;;;;;5130983;28;20451;-84
2021/09/15 13:08:35;;;;;;;18.70;13.27;;;28.50;51.40;;;;;;5130972;28;20479;-84
2021/09/15 13:11:02;;;;;;;15.43;12.97;;;29.70;44.80;;;;;;5129765;27;20479;-85
2021/09/15 13:13:30;;;;;;;15.03;13.30;;;30.50;40.80;;;;;;5131013;27;20466;-82
2021/09/15 13:15:58;;;;;;;13.60;12.10;;;30.00;32.60;;;;;;5130796;27;20464;-80
2021/09/15 13:18:25;;;;;;;15.73;13.10;;;29.90;33.20;;;;;;5130908;27;20448;-80
2021/09/15 13:20:53;;;;;;;14.27;12.73;;;29.80;28.80;;;;;;5130747;27;20458;-81
2021/09/15 13:23:20;;;;;;;13.57;12.00;;;30.30;33.10;;;;;;5130925;27;20448;-81
2021/09/15 13:25:47;;;;;;;13.77;11.70;;;31.10;30.00;;;;;;5129430;27;20471;-81
2021/09/15 13:28:14;;;;;;;18.03;13.83;;;31.20;25.80;;;;;;5130584;27;20505;-81
2021/09/15 13:30:41;;;;;;;19.80;13.47;;;30.20;26.10;;;;;;5130709;27;20479;-84
2021/09/15 13:33:08;;;;;;;16.50;13.77;;;29.10;31.50;;;;;;5130616;27;20483;-83
2021/09/15 13:35:35;;;;;;;18.43;13.47;;;28.00;32.80;;;;;;5130619;27;20550;-83
2021/09/15 13:38:04;;;;;;;16.20;13.10;;;27.40;41.70;;;;;;5130557;27;20450;-79
2021/09/15 13:40:30;;;;;;;17.70;14.77;;;26.70;41.20;;;;;;5129376;27;20951;-86
2021/09/15 13:42:57;;;;;;;18.27;16.00;;;26.60;42.20;;;;;;5130699;27;20530;-85
2021/09/15 13:45:24;;;;;;;18.20;15.87;;;26.10;41.70;;;;;;5130455;27;20960;-83
2021/09/15 13:47:51;;;;;;;23.60;16.70;;;25.70;43.60;;;;;;5130507;27;20452;-82
2021/09/15 13:50:21;;;;;;;21.97;15.40;;;25.30;48.10;;;;;;5130230;27;20815;-82
2021/09/15 13:52:49;;;;;;;19.63;17.17;;;24.50;51.70;;;;;;5130630;27;20487;-80
2021/09/15 13:55:18;;;;;;;22.77;18.67;;;24.00;54.30;;;;;;5129734;27;20448;-83
2021/09/15 13:57:45;;;;;;;23.17;17.50;;;23.40;58.00;;;;;;5130393;27;20458;-79
2021/09/15 14:00:12;;;;;;;23.93;18.57;;;23.00;63.20;;;;;;5130254;27;20527;-79
2021/09/15 14:02:39;;;;;;;24.40;18.87;;;22.70;66.40;;;;;;5130435;27;20479;-84
2021/09/15 14:05:07;;;;;;;25.17;21.33;;;22.40;71.10;;;;;;5130667;27;20821;-81
2021/09/15 14:07:34;;;;;;;26.87;21.80;;;22.20;76.30;;;;;;5130192;27;20481;-78
2021/09/15 14:10:01;;;;;;;27.63;23.07;;;22.00;81.10;;;;;;5128674;27;20457;-81
2021/09/15 14:12:29;;;;;;;27.23;24.27;;;21.70;92.10;;;;;;5129910;27;20480;-76
2021/09/15 14:14:56;;;;;;;30.60;26.30;;;21.60;93.30;;;;;;5115680;27;20475;-76
2021/09/15 14:17:23;;;;;;;34.03;27.27;;;21.80;94.30;;;;;;5116269;28;20481;-76
2021/09/15 14:19:50;;;;;;;38.20;28.00;;;22.10;93.90;;;;;;5116255;27;20457;-80
2021/09/15 14:22:16;;;;;;;35.33;25.80;;;23.10;90.20;;;;;;5116247;28;20462;-81
2021/09/15 14:24:48;;;;;;;31.30;23.87;;;22.90;80.90;;;;;;5114701;28;20965;-77
2021/09/15 14:27:15;;;;;;;32.77;27.03;;;22.50;80.40;;;;;;5115925;28;20930;-81
2021/09/15 14:29:43;;;;;;;37.80;28.87;;;22.30;87.10;;;;;;5116165;28;20456;-83
2021/09/15 14:32:10;;;;;;;37.80;29.53;;;22.10;88.00;;;;;;5115748;28;20482;-81
2021/09/15 14:34:37;;;;;;;45.33;35.27;;;21.70;90.10;;;;;;5116053;28;20554;-81
2021/09/15 14:37:04;;;;;;;40.13;34.80;;;21.70;90.40;;;;;;5115711;28;20463;-80
2021/09/15 14:39:31;;;;;;;40.20;34.60;;;22.00;87.90;;;;;;5115711;28;20877;-77
2021/09/15 14:41:58;;;;;;;38.23;32.63;;;22.70;85.00;;;;;;5114628;28;20496;-80
2021/09/15 14:44:25;;;;;;;34.07;29.90;;;23.10;73.00;;;;;;5115689;28;20460;-81
2021/09/15 14:46:53;;;;;;;33.40;28.43;;;23.30;69.00;;;;;;5115759;28;20524;-79
2021/09/15 14:49:20;;;;;;;39.97;28.07;;;23.40;69.90;;;;;;5116240;28;20456;-81
2021/09/15 14:51:47;;;;;;;34.80;23.73;;;23.80;67.40;;;;;;5115918;28;20452;-84
2021/09/15 14:54:14;;;;;;;32.20;24.97;;;24.20;61.80;;;;;;5115618;27;20459;-81
2021/09/15 14:56:41;;;;;;;30.67;26.00;;;24.10;60.10;;;;;;5114317;28;20495;-80
2021/09/15 14:59:08;;;;;;;31.77;25.40;;;23.80;60.30;;;;;;5115383;28;20449;-79
2021/09/15 15:01:35;;;;;;;31.70;26.67;;;23.30;62.60;;;;;;5115348;28;20571;-81
2021/09/15 15:04:03;;;;;;;31.10;24.37;;;23.70;65.00;;;;;;5115022;28;20947;-80
2021/09/15 15:06:30;;;;;;;34.33;25.30;;;23.40;59.70;;;;;;5115385;27;20452;-79
2021/09/15 15:08:57;;;;;;;28.97;22.97;;;23.10;61.20;;;;;;5115163;28;20463;-86
2021/09/15 15:11:24;;;;;;;35.27;26.10;;;23.20;60.80;;;;;;5113946;28;20453;-84
2021/09/15 15:13:50;;;;;;;31.90;24.47;;;22.50;64.20;;;;;;5115597;28;20520;-83
2021/09/15 15:16:17;;;;;;;40.00;26.50;;;22.20;67.00;;;;;;5115695;28;20814;-82
2021/09/15 15:18:44;;;;;;;35.03;25.77;;;22.00;70.30;;;;;;5115337;28;20451;-81
2021/09/15 15:21:12;;;;;;;37.83;31.40;;;22.10;69.70;;;;;;5114786;28;20454;-82
2021/09/15 15:23:47;;;;;;;36.93;27.57;;;21.80;70.10;;;;;;5114504;28;20512;-80
2021/09/15 15:26:14;;;;;;;36.90;33.00;;;21.80;73.20;;;;;;5112812;27;20507;-82
2021/09/15 15:28:41;;;;;;;36.70;31.13;;;21.70;68.50;;;;;;5115724;28;20457;-89
2021/09/15 15:31:12;;;;;;;39.77;30.90;;;22.10;70.10;;;;;;5115027;28;20487;-88
2021/09/15 15:33:41;;;;;;;32.60;27.63;;;22.30;66.70;;;;;;5115757;28;20868;-83
2021/09/15 15:36:08;;;;;;;38.57;30.57;;;21.90;64.30;;;;;;5115528;28;20931;-84
2021/09/15 15:38:36;;;;;;;34.70;28.97;;;21.60;67.00;;;;;;5114954;28;20506;-82
2021/09/15 15:41:03;;;;;;;34.47;27.90;;;21.70;67.20;;;;;;5113560;28;20545;-86
2021/09/15 15:43:33;;;;;;;33.97;29.00;;;21.40;67.10;;;;;;5114854;28;20459;-86
2021/09/15 15:46:02;;;;;;;34.50;26.73;;;21.30;71.30;;;;;;5114817;28;20458;-87
2021/09/15 15:48:31;;;;;;;32.73;27.33;;;21.30;71.30;;;;;;5114695;28;20462;-84
2021/09/15 15:50:58;;;;;;;28.37;24.70;;;21.10;71.10;;;;;;5114215;28;20483;-84
2021/09/15 15:53:30;;;;;;;26.83;22.60;;;21.10;68.30;;;;;;5114594;28;20487;-86
2021/09/15 15:56:03;;;;;;;21.77;19.57;;;20.90;67.60;;;;;;5113930;28;20448;-86
2021/09/15 15:58:31;;;;;;;21.30;19.00;;;21.10;66.00;;;;;;5115339;28;20510;-90
2021/09/15 16:01:03;;;;;;;19.67;17.67;;;21.00;66.00;;;;;;5114412;28;20546;-86
2021/09/15 16:03:32;;;;;;;21.50;19.23;;;21.10;67.60;;;;;;5113350;28;21014;-91
2021/09/15 16:06:00;;;;;;;23.13;20.30;;;20.80;64.40;;;;;;5114093;28;21225;-87
2021/09/15 16:08:27;;;;;;;18.83;16.70;;;20.60;63.20;;;;;;5113395;28;20472;-91
2021/09/15 16:11:01;;;;;;;19.93;17.80;;;20.50;65.20;;;;;;5112702;28;20463;-90
2021/09/15 16:13:34;;;;;;;19.50;17.40;;;20.40;66.20;;;;;;5112976;28;20568;-89
2021/09/15 16:16:01;;;;;;;19.47;15.93;;;20.30;67.60;;;;;;5112822;28;20481;-91
2021/09/15 16:18:31;;;;;;;17.60;15.80;;;20.30;68.30;;;;;;5112563;28;20491;-83
2021/09/15 16:20:59;;;;;;;16.57;14.07;;;20.40;68.50;;;;;;5112703;28;20475;-84
2021/09/15 16:23:26;;;;;;;14.80;13.30;;;20.20;67.30;;;;;;5112970;28;20456;-78
2021/09/15 16:25:53;;;;;;;13.83;12.43;;;20.30;67.00;;;;;;5112040;28;20536;-88
2021/09/15 16:28:20;;;;;;;13.80;10.60;;;20.20;64.40;;;;;;5113235;28;20449;-86
2021/09/15 16:30:49;;;;;;;12.60;9.60;;;20.20;65.40;;;;;;5112767;27;20545;-82
2021/09/15 16:33:22;;;;;;;13.33;9.40;;;20.30;64.80;;;;;;5112833;28;20483;-91
2021/09/15 16:35:49;;;;;;;15.90;9.00;;;20.10;65.00;;;;;;5112677;28;20451;-82
2021/09/15 16:38:17;;;;;;;16.07;9.23;;;20.30;66.60;;;;;;5112401;28;20535;-79
2021/09/15 16:41:03;;;;;;;12.53;8.37;;;20.20;64.80;;;;;;5111310;28;20523;-88
2021/09/15 16:43:37;;;;;;;13.73;8.20;;;20.50;62.30;;;;;;5112895;28;20469;-90
2021/09/15 16:46:09;;;;;;;9.57;7.57;;;20.40;62.20;;;;;;5113498;28;20498;-89
2021/09/15 16:48:41;;;;;;;11.27;8.23;;;20.60;63.00;;;;;;5114507;28;20441;-90
2021/09/15 16:54:05;;;;;;;10.80;7.67;;;20.90;58.90;;;;;;5113965;28;20491;-92
2021/09/15 16:56:32;;;;;;;9.03;6.80;;;20.80;62.60;;;;;;5114580;28;20462;-91
2021/09/15 16:59:06;;;;;;;9.20;6.87;;;20.40;59.50;;;;;;5115622;28;20798;-87